createdAt,value
2023-04-18T00:01:28.805Z,19.00
2023-04-18T00:03:55.382Z,20.35
2023-04-18T00:06:22.263Z,18.45
2023-04-18T00:08:49.047Z,19.02
2023-04-18T00:11:15.567Z,18.55
2023-04-18T00:13:42.110Z,17.83
2023-04-18T00:16:08.744Z,18.55
2023-04-18T00:18:37.151Z,20.27
2023-04-18T00:21:04.449Z,19.90
2023-04-18T00:23:31.111Z,20.02
2023-04-18T00:25:57.647Z,19.40
2023-04-18T00:28:24.142Z,20.10
2023-04-18T00:30:50.747Z,20.73
2023-04-18T00:33:18.769Z,21.55
2023-04-18T00:35:45.250Z,23.83
2023-04-18T00:38:11.651Z,20.42
2023-04-18T00:40:38.807Z,22.80
2023-04-18T00:43:07.761Z,18.55
2023-04-18T00:45:34.313Z,19.23
2023-04-18T00:48:00.886Z,20.05
2023-04-18T00:50:27.572Z,20.42
2023-04-18T00:52:54.620Z,18.92
2023-04-18T00:55:21.567Z,20.48
2023-04-18T00:57:48.000Z,18.98
2023-04-18T01:00:15.174Z,19.35
2023-04-18T01:02:41.602Z,18.08
2023-04-18T01:05:08.704Z,18.55
2023-04-18T01:07:37.640Z,19.45
2023-04-18T01:10:04.573Z,19.88
2023-04-18T01:12:31.261Z,17.60
2023-04-18T01:14:58.759Z,19.48
2023-04-18T01:17:25.351Z,19.10
2023-04-18T01:19:51.767Z,19.42
2023-04-18T01:22:19.912Z,19.33
2023-04-18T01:24:46.360Z,18.75
2023-04-18T01:27:13.538Z,19.92
2023-04-18T01:29:40.763Z,19.20
2023-04-18T01:32:07.453Z,16.92
2023-04-18T01:34:33.972Z,17.50
2023-04-18T01:37:00.653Z,17.55
2023-04-18T01:39:27.966Z,18.58
2023-04-18T01:41:54.375Z,18.50
2023-04-18T01:44:20.815Z,18.40
2023-04-18T01:46:47.284Z,19.02
2023-04-18T01:49:13.807Z,18.45
2023-04-18T01:51:41.037Z,16.73
2023-04-18T01:54:07.492Z,18.55
2023-04-18T01:56:33.956Z,21.73
2023-04-18T01:59:00.613Z,17.92
2023-04-18T02:01:27.214Z,19.88
2023-04-18T02:03:53.976Z,18.52
2023-04-18T02:06:20.687Z,17.40
2023-04-18T02:08:47.117Z,21.20
2023-04-18T02:11:13.562Z,17.67
2023-04-18T02:13:39.960Z,18.50
2023-04-18T02:16:11.237Z,18.13
2023-04-18T02:18:40.257Z,18.73
2023-04-18T02:21:07.182Z,17.92
2023-04-18T02:23:33.631Z,16.13
2023-04-18T02:26:00.235Z,18.85
2023-04-18T02:28:26.662Z,14.63
2023-04-18T02:30:53.134Z,17.33
2023-04-18T02:33:19.650Z,18.55
2023-04-18T02:35:46.112Z,18.38
2023-04-18T02:38:13.791Z,17.42
2023-04-18T02:40:40.211Z,22.33
2023-04-18T02:43:06.672Z,17.50
2023-04-18T02:45:33.096Z,19.17
2023-04-18T02:47:59.626Z,16.08
2023-04-18T02:50:26.948Z,17.27
2023-04-18T02:52:53.650Z,18.77
2023-04-18T02:55:21.097Z,20.45
2023-04-18T02:57:47.758Z,16.10
2023-04-18T03:00:14.540Z,20.63
2023-04-18T03:02:41.164Z,18.00
2023-04-18T03:05:08.075Z,17.27
2023-04-18T03:07:34.471Z,19.27
2023-04-18T03:10:00.887Z,18.02
2023-04-18T03:12:27.319Z,18.60
2023-04-18T03:14:53.954Z,18.58
2023-04-18T03:17:20.553Z,17.92
2023-04-18T03:19:47.030Z,17.13
2023-04-18T03:22:14.275Z,17.45
2023-04-18T03:24:40.830Z,16.75
2023-04-18T03:27:07.360Z,15.15
2023-04-18T03:29:33.980Z,18.77
2023-04-18T03:32:00.433Z,16.27
2023-04-18T03:34:27.294Z,17.42
2023-04-18T03:36:54.034Z,18.23
2023-04-18T03:39:20.566Z,16.27
2023-04-18T03:41:47.090Z,16.83
2023-04-18T03:44:13.866Z,15.18
2023-04-18T03:46:40.721Z,17.45
2023-04-18T03:49:07.128Z,16.48
2023-04-18T03:51:41.889Z,17.20
2023-04-18T03:54:08.557Z,18.30
2023-04-18T03:56:35.659Z,17.35
2023-04-18T03:59:02.137Z,17.88
2023-04-18T04:01:28.679Z,16.80
2023-04-18T04:03:55.247Z,17.25
2023-04-18T04:06:21.860Z,17.20
2023-04-18T04:08:48.215Z,17.80
2023-04-18T04:11:14.607Z,17.95
2023-04-18T04:13:41.013Z,17.95
2023-04-18T04:16:07.950Z,19.85
2023-04-18T04:18:34.379Z,15.98
2023-04-18T04:21:00.997Z,16.35
2023-04-18T04:23:27.507Z,17.38
2023-04-18T04:25:54.621Z,19.30
2023-04-18T04:28:22.762Z,18.15
2023-04-18T04:30:53.024Z,17.67
2023-04-18T04:33:20.284Z,17.95
2023-04-18T04:35:47.513Z,19.77
2023-04-18T04:38:15.314Z,19.40
2023-04-18T04:43:12.565Z,17.77
2023-04-18T04:45:41.944Z,18.00
2023-04-18T04:48:08.948Z,20.13
2023-04-18T04:50:38.241Z,17.25
2023-04-18T04:53:06.395Z,18.30
2023-04-18T04:55:33.113Z,24.55
2023-04-18T04:57:59.751Z,15.68
2023-04-18T05:00:26.640Z,17.45
2023-04-18T05:02:55.243Z,19.83
2023-04-18T05:05:21.898Z,21.52
2023-04-18T05:07:48.304Z,17.95
2023-04-18T05:10:14.849Z,16.35
2023-04-18T05:12:41.269Z,18.52
2023-04-18T05:15:08.003Z,17.70
2023-04-18T05:17:34.755Z,19.90
2023-04-18T05:20:01.198Z,17.00
2023-04-18T05:22:27.599Z,18.17
2023-04-18T05:24:54.062Z,17.23
2023-04-18T05:27:20.543Z,16.60
2023-04-18T05:29:47.944Z,19.80
2023-04-18T05:32:14.681Z,21.90
2023-04-18T05:34:42.249Z,18.40
2023-04-18T05:37:09.012Z,17.67
2023-04-18T05:39:35.500Z,18.73
2023-04-18T05:42:02.696Z,19.75
2023-04-18T05:44:29.968Z,17.10
2023-04-18T05:46:56.380Z,18.10
2023-04-18T05:49:23.063Z,21.20
2023-04-18T05:51:49.958Z,17.98
2023-04-18T05:54:16.905Z,19.52
2023-04-18T05:56:43.363Z,23.40
2023-04-18T05:59:09.828Z,22.48
2023-04-18T06:01:36.306Z,17.50
2023-04-18T06:04:02.899Z,16.50
2023-04-18T06:06:29.411Z,16.77
2023-04-18T06:08:55.868Z,17.17
2023-04-18T06:11:22.575Z,17.48
2023-04-18T06:13:49.099Z,16.05
2023-04-18T06:16:15.585Z,16.63
2023-04-18T06:18:42.046Z,16.92
2023-04-18T06:21:08.762Z,17.65
2023-04-18T06:23:35.261Z,17.98
2023-04-18T06:26:01.724Z,20.15
2023-04-18T06:28:28.348Z,16.45
2023-04-18T06:30:54.793Z,19.10
2023-04-18T06:33:21.580Z,18.17
2023-04-18T06:35:48.301Z,22.08
2023-04-18T06:38:15.106Z,18.88
2023-04-18T06:40:41.572Z,20.98
2023-04-18T06:43:08.136Z,19.13
2023-04-18T06:45:35.453Z,17.73
2023-04-18T06:48:05.449Z,19.95
2023-04-18T06:50:32.122Z,17.63
2023-04-18T06:52:58.675Z,16.52
2023-04-18T06:55:25.520Z,18.77
2023-04-18T06:57:52.347Z,18.20
2023-04-18T07:00:19.237Z,17.05
2023-04-18T07:02:46.278Z,17.15
2023-04-18T07:05:13.474Z,21.75
2023-04-18T07:07:40.253Z,18.25
2023-04-18T07:10:09.633Z,16.58
2023-04-18T07:12:36.130Z,18.05
2023-04-18T07:15:03.755Z,17.98
2023-04-18T07:17:30.333Z,20.98
2023-04-18T07:19:56.907Z,19.00
2023-04-18T07:22:23.572Z,18.90
2023-04-18T07:24:50.087Z,17.48
2023-04-18T07:27:16.508Z,18.02
2023-04-18T07:29:42.978Z,17.33
2023-04-18T07:32:09.764Z,16.58
2023-04-18T07:34:37.512Z,19.83
2023-04-18T07:39:35.802Z,17.70
2023-04-18T07:42:04.454Z,17.08
2023-04-18T07:44:30.979Z,16.42
2023-04-18T07:46:57.920Z,15.52
2023-04-18T07:49:24.360Z,16.30
2023-04-18T07:51:50.825Z,15.10
2023-04-18T07:54:17.268Z,13.93
2023-04-18T07:56:43.713Z,18.98
2023-04-18T07:59:10.152Z,16.25
2023-04-18T08:01:36.759Z,16.73
2023-04-18T08:04:03.643Z,15.38
2023-04-18T08:06:30.165Z,17.45
2023-04-18T08:08:58.941Z,16.23
2023-04-18T08:11:25.364Z,17.48
2023-04-18T08:13:51.818Z,18.95
2023-04-18T08:16:18.264Z,17.60
2023-04-18T08:18:44.667Z,15.98
2023-04-18T08:21:11.341Z,17.58
2023-04-18T08:23:37.741Z,18.58
2023-04-18T08:26:04.277Z,17.63
2023-04-18T08:28:30.724Z,18.65
2023-04-18T08:30:57.226Z,17.30
2023-04-18T08:33:24.494Z,19.80
2023-04-18T08:35:51.525Z,17.85
2023-04-18T08:38:19.158Z,17.38
2023-04-18T08:40:46.387Z,17.98
2023-04-18T08:43:15.043Z,18.80
2023-04-18T08:45:42.210Z,18.38
2023-04-18T08:48:15.148Z,18.55
2023-04-18T08:50:42.042Z,19.33
2023-04-18T08:53:08.995Z,18.77
2023-04-18T08:55:35.904Z,18.65
2023-04-18T08:58:04.889Z,17.55
2023-04-18T09:00:32.608Z,18.17
2023-04-18T09:02:59.292Z,15.70
2023-04-18T09:05:33.156Z,17.60
2023-04-18T09:08:02.128Z,16.40
2023-04-18T09:10:36.467Z,14.73
2023-04-18T09:15:31.190Z,15.05
2023-04-18T09:18:00.153Z,15.25
2023-04-18T09:20:35.997Z,17.35
2023-04-18T09:23:10.681Z,17.85
2023-04-18T09:25:45.345Z,17.63
2023-04-18T09:28:53.824Z,18.10
2023-04-18T09:31:22.598Z,17.88
2023-04-18T09:33:54.509Z,15.75
2023-04-18T09:36:27.405Z,18.20
2023-04-18T09:38:56.617Z,16.08
2023-04-18T09:41:24.078Z,18.02
2023-04-18T09:43:52.097Z,17.05
2023-04-18T09:46:18.668Z,20.92
2023-04-18T09:48:45.533Z,17.55
2023-04-18T09:51:16.315Z,16.40
2023-04-18T09:53:51.033Z,15.38
2023-04-18T09:56:28.093Z,16.35
2023-04-18T09:59:06.261Z,15.55
2023-04-18T10:01:33.743Z,14.30
2023-04-18T10:04:03.600Z,15.48
2023-04-18T10:06:33.410Z,15.95
2023-04-18T10:09:04.251Z,14.35
2023-04-18T10:11:32.148Z,14.13
2023-04-18T10:14:02.585Z,13.48
2023-04-18T10:16:29.599Z,16.52
2023-04-18T10:18:56.740Z,15.48
2023-04-18T10:21:23.423Z,13.93
2023-04-18T10:23:50.530Z,14.35
2023-04-18T10:26:17.068Z,15.27
2023-04-18T10:28:54.886Z,15.02
2023-04-18T10:31:23.335Z,17.17
2023-04-18T10:34:04.001Z,15.30
2023-04-18T10:36:32.399Z,16.08
2023-04-18T10:39:21.902Z,14.35
2023-04-18T10:41:50.944Z,13.90
2023-04-18T10:44:19.983Z,18.38
2023-04-18T10:46:52.353Z,13.63
2023-04-18T10:49:31.035Z,15.60
2023-04-18T10:52:00.446Z,15.48
2023-04-18T10:54:59.136Z,17.02
2023-04-18T10:57:37.727Z,16.25
2023-04-18T11:00:05.586Z,15.40
2023-04-18T11:02:33.392Z,15.95
2023-04-18T11:05:02.120Z,15.90
2023-04-18T11:07:32.600Z,15.55
2023-04-18T11:09:59.092Z,13.73
2023-04-18T11:12:30.565Z,15.05
2023-04-18T11:14:57.132Z,12.43
2023-04-18T11:17:26.207Z,15.50
2023-04-18T11:20:11.594Z,14.30
2023-04-18T11:22:48.704Z,14.45
2023-04-18T11:25:16.744Z,16.15
2023-04-18T11:27:45.109Z,14.35
2023-04-18T11:30:13.976Z,14.48
2023-04-18T11:32:41.089Z,13.35
2023-04-18T11:35:12.279Z,14.27
2023-04-18T11:37:40.712Z,13.88
2023-04-18T11:40:10.606Z,12.15
2023-04-18T11:42:39.246Z,13.38
2023-04-18T11:45:13.069Z,11.68
2023-04-18T11:47:41.961Z,12.25
2023-04-18T11:50:10.954Z,12.60
2023-04-18T11:52:39.118Z,13.68
2023-04-18T11:55:21.851Z,11.75
2023-04-18T11:57:56.369Z,13.57
2023-04-18T12:00:36.984Z,13.18
2023-04-18T12:03:05.526Z,13.65
2023-04-18T12:05:34.732Z,16.25
2023-04-18T12:08:13.221Z,13.75
2023-04-18T12:10:53.063Z,14.73
2023-04-18T12:13:25.822Z,12.52
2023-04-18T12:15:53.040Z,13.40
2023-04-18T12:18:19.896Z,11.13
2023-04-18T12:20:52.428Z,11.88
2023-04-18T12:23:36.016Z,10.23
2023-04-18T12:26:04.187Z,11.88
2023-04-18T12:28:31.594Z,10.18
2023-04-18T12:30:58.883Z,10.45
2023-04-18T12:33:26.335Z,10.48
2023-04-18T12:35:53.808Z,10.10
2023-04-18T12:40:49.149Z,8.82
2023-04-18T12:43:16.612Z,11.80
2023-04-18T12:45:43.283Z,9.27
2023-04-18T12:48:09.904Z,8.50
2023-04-18T12:50:36.398Z,9.77
2023-04-18T12:53:02.928Z,9.60
2023-04-18T12:55:29.700Z,9.90
2023-04-18T12:57:56.245Z,9.32
2023-04-18T13:00:24.192Z,8.70
2023-04-18T13:02:52.349Z,12.30
2023-04-18T13:05:20.773Z,9.80
2023-04-18T13:07:49.367Z,9.43
2023-04-18T13:10:20.788Z,9.88
2023-04-18T13:12:49.983Z,9.05
2023-04-18T13:15:16.861Z,9.95
2023-04-18T13:17:43.687Z,10.45
2023-04-18T13:20:12.543Z,9.45
2023-04-18T13:22:41.272Z,8.55
2023-04-18T13:25:10.430Z,8.20
2023-04-18T13:27:41.967Z,8.13
2023-04-18T13:30:10.682Z,8.27
2023-04-18T13:32:38.955Z,9.73
2023-04-18T13:35:08.198Z,11.18
2023-04-18T13:37:36.828Z,9.82
2023-04-18T13:40:05.622Z,10.60
2023-04-18T13:42:39.515Z,9.70
2023-04-18T13:45:06.286Z,8.73
2023-04-18T13:47:32.829Z,9.80
2023-04-18T13:49:59.490Z,8.98
2023-04-18T13:52:26.146Z,10.05
2023-04-18T13:54:52.904Z,9.65
2023-04-18T13:57:19.488Z,11.80
2023-04-18T13:59:45.996Z,7.75
2023-04-18T14:02:12.559Z,10.48
2023-04-18T14:04:39.138Z,8.05
2023-04-18T14:07:06.330Z,8.23
2023-04-18T14:09:33.218Z,10.05
2023-04-18T14:11:59.785Z,9.40
2023-04-18T14:14:26.262Z,8.75
2023-04-18T14:16:53.698Z,8.60
2023-04-18T14:21:46.687Z,11.80
2023-04-18T14:24:13.298Z,8.15
2023-04-18T14:26:39.731Z,8.50
2023-04-18T14:29:06.274Z,8.05
2023-04-18T14:31:32.688Z,8.23
2023-04-18T14:33:59.253Z,8.07
2023-04-18T14:36:27.163Z,7.50
2023-04-18T14:38:54.795Z,7.20
2023-04-18T14:41:21.591Z,8.13
2023-04-18T14:43:48.326Z,7.35
2023-04-18T14:46:19.048Z,7.85
2023-04-18T14:48:48.437Z,8.57
2023-04-18T14:51:17.196Z,8.93
2023-04-18T14:53:44.703Z,7.30
2023-04-18T14:58:37.673Z,7.95
2023-04-18T15:01:04.736Z,6.97
2023-04-18T15:03:31.520Z,6.65
2023-04-18T15:05:58.196Z,6.63
2023-04-18T15:08:24.818Z,6.57
2023-04-18T15:10:51.360Z,6.97
2023-04-18T15:13:17.787Z,8.05
2023-04-18T15:15:51.356Z,6.53
2023-04-18T15:18:17.722Z,7.05
2023-04-18T15:20:44.141Z,7.80
2023-04-18T15:23:13.576Z,6.85
2023-04-18T15:25:41.182Z,7.38
2023-04-18T15:28:07.730Z,7.30
2023-04-18T15:30:34.230Z,7.07
2023-04-18T15:33:04.024Z,7.47
2023-04-18T15:35:30.650Z,9.00
2023-04-18T15:37:57.462Z,6.93
2023-04-18T15:40:24.247Z,7.43
2023-04-18T15:42:53.527Z,7.63
2023-04-18T15:45:21.267Z,7.47
2023-04-18T15:47:47.926Z,7.68
2023-04-18T15:50:15.941Z,8.48
2023-04-18T15:52:42.556Z,7.78
2023-04-18T15:55:11.075Z,7.93
2023-04-18T15:57:37.563Z,7.93
2023-04-18T16:00:10.156Z,8.30
2023-04-18T16:02:37.023Z,7.82
2023-04-18T16:05:04.401Z,7.45
2023-04-18T16:07:31.008Z,7.43
2023-04-18T16:09:57.394Z,10.18
2023-04-18T16:12:23.885Z,7.85
2023-04-18T16:14:50.283Z,8.90
2023-04-18T16:17:16.669Z,7.97
2023-04-18T16:19:43.064Z,8.13
2023-04-18T16:22:10.490Z,8.40
2023-04-18T16:27:03.843Z,6.85
2023-04-18T16:29:30.585Z,8.05
2023-04-18T16:31:57.001Z,9.73
2023-04-18T16:34:23.530Z,8.15
2023-04-18T16:36:51.157Z,7.13
2023-04-18T16:39:18.641Z,7.72
2023-04-18T16:41:45.243Z,7.03
2023-04-18T16:44:11.763Z,7.97
2023-04-18T16:46:38.305Z,8.98
2023-04-18T16:49:04.868Z,8.82
2023-04-18T16:51:31.401Z,8.18
2023-04-18T16:53:57.863Z,8.32
2023-04-18T16:56:24.344Z,9.65
2023-04-18T16:58:50.828Z,8.73
2023-04-18T17:01:17.199Z,9.18
2023-04-18T17:03:43.808Z,7.25
2023-04-18T17:06:10.461Z,9.52
2023-04-18T17:08:36.837Z,8.68
2023-04-18T17:11:03.333Z,7.30
2023-04-18T17:13:31.604Z,8.10
2023-04-18T17:15:58.399Z,7.18
2023-04-18T17:18:25.046Z,8.77
2023-04-18T17:20:52.406Z,10.02
2023-04-18T17:23:18.971Z,8.68
2023-04-18T17:25:46.103Z,9.20
2023-04-18T17:28:12.631Z,8.70
2023-04-18T17:30:41.310Z,7.82
2023-04-18T17:33:09.323Z,8.95
2023-04-18T17:35:36.145Z,9.90
2023-04-18T17:38:03.330Z,7.40
2023-04-18T17:40:30.023Z,8.00
2023-04-18T17:42:56.581Z,7.68
2023-04-18T17:45:23.071Z,9.95
2023-04-18T17:47:50.813Z,13.20
2023-04-18T17:50:17.594Z,9.70
2023-04-18T17:52:45.154Z,9.23
2023-04-18T17:57:38.023Z,10.27
2023-04-18T18:00:10.397Z,10.55
2023-04-18T18:02:37.520Z,8.57
2023-04-18T18:05:05.234Z,11.15
2023-04-18T18:07:34.695Z,10.13
2023-04-18T18:10:01.532Z,9.25
2023-04-18T18:12:28.023Z,12.65
2023-04-18T18:14:54.394Z,8.98
2023-04-18T18:17:20.950Z,11.02
2023-04-18T18:19:47.426Z,9.63
2023-04-18T18:22:13.986Z,10.30
2023-04-18T18:24:40.429Z,10.70
2023-04-18T18:27:06.824Z,11.23
2023-04-18T18:29:33.212Z,11.63
2023-04-18T18:32:00.202Z,12.35
2023-04-18T18:34:27.806Z,11.32
2023-04-18T18:36:54.168Z,10.98
2023-04-18T18:39:20.881Z,11.63
2023-04-18T18:41:47.254Z,11.73
2023-04-18T18:44:13.780Z,11.88
2023-04-18T18:46:42.092Z,13.18
2023-04-18T18:49:09.938Z,12.48
2023-04-18T18:51:37.036Z,13.50
2023-04-18T18:54:03.455Z,10.77
2023-04-18T18:56:29.901Z,10.90
2023-04-18T18:58:56.289Z,9.45
2023-04-18T19:01:23.323Z,10.50
2023-04-18T19:03:50.060Z,11.75
2023-04-18T19:06:16.712Z,11.25
2023-04-18T19:08:43.142Z,11.35
2023-04-18T19:11:10.335Z,11.05
2023-04-18T19:13:36.879Z,11.27
2023-04-18T19:16:03.338Z,13.18
2023-04-18T19:18:29.859Z,10.43
2023-04-18T19:20:56.296Z,10.63
2023-04-18T19:23:25.110Z,12.23
2023-04-18T19:25:52.064Z,10.95
2023-04-18T19:28:18.591Z,9.85
2023-04-18T19:30:46.365Z,12.73
2023-04-18T19:33:13.706Z,11.15
2023-04-18T19:35:40.308Z,11.15
2023-04-18T19:38:06.745Z,11.48
2023-04-18T19:40:33.222Z,11.63
2023-04-18T19:42:59.716Z,10.80
2023-04-18T19:45:26.177Z,10.20
2023-04-18T19:47:52.735Z,12.05
2023-04-18T19:50:19.235Z,10.23
2023-04-18T19:52:45.664Z,11.40
2023-04-18T19:55:12.189Z,11.82
2023-04-18T19:57:39.810Z,10.85
2023-04-18T20:05:00.926Z,10.07
2023-04-18T20:07:27.610Z,12.70
2023-04-18T20:09:54.090Z,11.40
2023-04-18T20:12:20.588Z,9.77
2023-04-18T20:14:46.984Z,12.52
2023-04-18T20:17:13.554Z,12.18
2023-04-18T20:19:39.945Z,10.00
2023-04-18T20:22:06.443Z,9.52
2023-04-18T20:24:34.508Z,11.10
2023-04-18T20:27:01.676Z,13.02
2023-04-18T20:29:28.295Z,10.65
2023-04-18T20:31:54.677Z,10.48
2023-04-18T20:34:21.364Z,10.00
2023-04-18T20:36:47.860Z,10.63
2023-04-18T20:39:15.451Z,10.48
2023-04-18T20:41:48.961Z,10.77
2023-04-18T20:44:22.110Z,10.15
2023-04-18T20:46:48.597Z,11.48
2023-04-18T20:49:15.064Z,10.35
2023-04-18T20:51:41.658Z,10.73
2023-04-18T20:54:08.215Z,10.15
2023-04-18T20:56:36.720Z,12.00
2023-04-18T20:59:04.738Z,11.52
2023-04-18T21:01:31.419Z,14.90
2023-04-18T21:03:58.361Z,10.18
2023-04-18T21:06:24.856Z,11.20
2023-04-18T21:08:51.243Z,11.70
2023-04-18T21:11:17.772Z,12.32
2023-04-18T21:13:44.129Z,11.93
2023-04-18T21:16:10.814Z,10.93
2023-04-18T21:18:37.361Z,13.52
2023-04-18T21:21:04.759Z,12.82
2023-04-18T21:23:31.189Z,11.85
2023-04-18T21:25:57.674Z,10.82
2023-04-18T21:28:24.021Z,12.55
2023-04-18T21:30:50.682Z,14.52
2023-04-18T21:33:17.366Z,12.80
2023-04-18T21:35:43.716Z,13.80
2023-04-18T21:38:10.080Z,11.40
2023-04-18T21:40:37.288Z,11.25
2023-04-18T21:43:03.710Z,11.65
2023-04-18T21:45:30.139Z,11.02
2023-04-18T21:47:56.589Z,13.48
2023-04-18T21:50:23.086Z,10.35
2023-04-18T21:52:49.500Z,12.73
2023-04-18T21:55:17.688Z,11.63
2023-04-18T21:57:44.134Z,12.35
2023-04-18T22:00:11.331Z,12.43
2023-04-18T22:02:38.018Z,11.77
2023-04-18T22:05:04.972Z,11.50
2023-04-18T22:07:31.326Z,13.38
2023-04-18T22:10:05.719Z,13.57
2023-04-18T22:12:32.708Z,13.13
2023-04-18T22:14:59.137Z,12.20
2023-04-18T22:17:26.067Z,12.20
2023-04-18T22:19:53.566Z,13.52
2023-04-18T22:22:19.933Z,13.70
2023-04-18T22:24:47.640Z,13.88
2023-04-18T22:27:14.365Z,11.20
2023-04-18T22:29:40.932Z,12.38
2023-04-18T22:32:07.367Z,15.98
2023-04-18T22:34:33.904Z,12.32
2023-04-18T22:37:00.600Z,12.30
2023-04-18T22:39:27.117Z,12.60
2023-04-18T22:41:53.513Z,14.15
2023-04-18T22:44:19.971Z,13.15
2023-04-18T22:46:48.161Z,13.43
2023-04-18T22:49:14.835Z,13.73
2023-04-18T22:51:42.165Z,12.50
2023-04-18T22:54:08.589Z,13.48
2023-04-18T22:56:34.973Z,11.52
2023-04-18T22:59:01.477Z,12.38
2023-04-18T23:01:27.994Z,12.10
2023-04-18T23:03:54.684Z,11.68
2023-04-18T23:06:21.345Z,13.15
2023-04-18T23:08:47.879Z,13.18
2023-04-18T23:11:14.362Z,12.82
2023-04-18T23:13:40.750Z,14.07
2023-04-18T23:16:07.745Z,13.30
2023-04-18T23:18:34.308Z,12.95
2023-04-18T23:21:01.005Z,16.83
2023-04-18T23:23:27.426Z,11.77
2023-04-18T23:25:53.864Z,15.00
2023-04-18T23:28:20.338Z,14.40
2023-04-18T23:30:48.073Z,13.27
2023-04-18T23:35:40.959Z,13.68
2023-04-18T23:38:07.353Z,12.98
2023-04-18T23:40:34.037Z,16.27
2023-04-18T23:43:01.379Z,16.55
2023-04-18T23:45:28.753Z,12.75
2023-04-18T23:47:55.458Z,16.23
2023-04-18T23:50:21.922Z,14.55
2023-04-18T23:52:48.358Z,13.98
2023-04-18T23:55:14.783Z,13.13
2023-04-18T23:57:41.169Z,12.77
